createdAt,value
2022-09-27T00:00:04.727Z,44.07
2022-09-27T00:00:36.134Z,43.99
2022-09-27T00:01:07.596Z,43.84
2022-09-27T00:01:39.126Z,44.08
2022-09-27T00:02:10.684Z,43.95
2022-09-27T00:02:42.190Z,44.09
2022-09-27T00:03:13.749Z,43.93
2022-09-27T00:03:45.201Z,44.18
2022-09-27T00:04:16.701Z,44.15
2022-09-27T00:04:48.104Z,43.94
2022-09-27T00:05:19.494Z,44.31
2022-09-27T00:05:50.956Z,43.91
2022-09-27T00:06:22.341Z,43.94
2022-09-27T00:06:53.744Z,43.98
2022-09-27T00:07:25.132Z,43.96
2022-09-27T00:07:56.515Z,44.01
2022-09-27T00:08:27.921Z,44.07
2022-09-27T00:08:59.357Z,44.23
2022-09-27T00:09:30.741Z,43.76
2022-09-27T00:10:02.124Z,44.04
2022-09-27T00:10:33.530Z,43.88
2022-09-27T00:11:04.943Z,44.04
2022-09-27T00:11:36.345Z,43.98
2022-09-27T00:12:07.732Z,43.78
2022-09-27T00:12:39.126Z,43.84
2022-09-27T00:13:10.545Z,43.94
2022-09-27T00:13:41.959Z,44.01
2022-09-27T00:14:13.388Z,43.73
2022-09-27T00:14:44.810Z,43.77
2022-09-27T00:15:16.197Z,44.02
2022-09-27T00:15:47.638Z,44.27
2022-09-27T00:16:19.093Z,43.88
2022-09-27T00:16:50.521Z,43.93
2022-09-27T00:17:21.914Z,44.34
2022-09-27T00:17:53.308Z,44.22
2022-09-27T00:18:24.693Z,44.05
2022-09-27T00:18:56.072Z,43.81
2022-09-27T00:19:27.541Z,44.33
2022-09-27T00:19:58.937Z,44.04
2022-09-27T00:20:30.349Z,43.92
2022-09-27T00:21:01.731Z,43.73
2022-09-27T00:21:33.117Z,43.94
2022-09-27T00:22:04.505Z,43.87
2022-09-27T00:22:35.893Z,44.45
2022-09-27T00:23:07.284Z,44.16
2022-09-27T00:23:38.670Z,44.12
2022-09-27T00:24:10.090Z,44.03
2022-09-27T00:24:41.478Z,44.04
2022-09-27T00:25:12.876Z,44.01
2022-09-27T00:25:44.280Z,43.95
2022-09-27T00:26:15.669Z,44.53
2022-09-27T00:26:47.056Z,44.17
2022-09-27T00:27:18.436Z,44.25
2022-09-27T00:27:49.845Z,44.43
2022-09-27T00:28:21.241Z,44.00
2022-09-27T00:28:52.646Z,43.87
2022-09-27T00:29:24.120Z,43.76
2022-09-27T00:29:55.524Z,44.20
2022-09-27T00:30:26.915Z,44.27
2022-09-27T00:30:58.366Z,44.45
2022-09-27T00:31:30.224Z,43.90
2022-09-27T00:32:01.783Z,44.39
2022-09-27T00:32:33.196Z,43.99
2022-09-27T00:33:04.613Z,44.18
2022-09-27T00:33:35.995Z,44.37
2022-09-27T00:34:07.375Z,44.22
2022-09-27T00:34:38.783Z,44.03
2022-09-27T00:35:10.171Z,44.15
2022-09-27T00:35:41.567Z,44.45
2022-09-27T00:36:12.958Z,44.27
2022-09-27T00:36:44.353Z,44.10
2022-09-27T00:37:15.742Z,44.40
2022-09-27T00:37:47.129Z,44.37
2022-09-27T00:38:18.507Z,43.99
2022-09-27T00:38:49.892Z,44.39
2022-09-27T00:39:21.280Z,43.93
2022-09-27T00:39:52.762Z,43.96
2022-09-27T00:40:24.287Z,43.88
2022-09-27T00:40:55.850Z,44.10
2022-09-27T00:41:27.260Z,44.03
2022-09-27T00:41:58.670Z,44.07
2022-09-27T00:42:30.067Z,43.88
2022-09-27T00:43:01.457Z,44.17
2022-09-27T00:43:32.850Z,43.97
2022-09-27T00:44:04.264Z,43.87
2022-09-27T00:44:35.650Z,44.21
2022-09-27T00:45:07.129Z,44.01
2022-09-27T00:45:38.512Z,44.10
2022-09-27T00:46:09.964Z,44.34
2022-09-27T00:46:41.417Z,44.13
2022-09-27T00:47:12.816Z,44.22
2022-09-27T00:47:44.227Z,44.01
2022-09-27T00:48:15.619Z,44.13
2022-09-27T00:48:47.018Z,44.20
2022-09-27T00:49:18.397Z,44.08
2022-09-27T00:49:49.799Z,43.99
2022-09-27T00:50:21.285Z,43.98
2022-09-27T00:50:52.694Z,44.38
2022-09-27T00:51:24.093Z,44.18
2022-09-27T00:51:55.477Z,44.23
2022-09-27T00:52:26.859Z,44.38
2022-09-27T00:52:58.248Z,43.83
2022-09-27T00:53:29.650Z,44.14
2022-09-27T00:54:01.062Z,43.95
2022-09-27T00:54:32.490Z,43.91
2022-09-27T00:55:03.905Z,44.32
2022-09-27T00:55:35.359Z,44.21
2022-09-27T00:56:06.743Z,44.08
2022-09-27T00:56:38.148Z,43.81
2022-09-27T00:57:09.532Z,43.90
2022-09-27T00:57:40.912Z,44.07
2022-09-27T00:58:12.289Z,43.99
2022-09-27T00:58:43.692Z,44.47
2022-09-27T00:59:15.159Z,44.20
2022-09-27T00:59:46.659Z,44.45
2022-09-27T01:00:18.049Z,44.24
2022-09-27T01:00:49.508Z,44.07
2022-09-27T01:01:20.931Z,44.18
2022-09-27T01:01:52.463Z,44.20
2022-09-27T01:02:23.962Z,44.44
2022-09-27T01:02:55.457Z,44.18
2022-09-27T01:03:26.875Z,44.09
2022-09-27T01:03:58.264Z,44.29
2022-09-27T01:04:29.652Z,44.02
2022-09-27T01:05:01.035Z,44.23
2022-09-27T01:05:32.411Z,44.50
2022-09-27T01:06:03.796Z,43.87
2022-09-27T01:06:35.192Z,44.10
2022-09-27T01:07:06.577Z,44.42
2022-09-27T01:07:37.981Z,44.14
2022-09-27T01:08:09.425Z,44.23
2022-09-27T01:08:40.827Z,44.30
2022-09-27T01:09:12.248Z,44.33
2022-09-27T01:09:43.662Z,44.43
2022-09-27T01:10:15.092Z,44.08
2022-09-27T01:10:46.480Z,44.24
2022-09-27T01:11:18.033Z,43.86
2022-09-27T01:11:49.420Z,44.21
2022-09-27T01:12:20.833Z,44.07
2022-09-27T01:12:52.239Z,44.45
2022-09-27T01:13:23.629Z,44.24
2022-09-27T01:13:55.033Z,43.93
2022-09-27T01:14:26.426Z,44.25
2022-09-27T01:14:57.812Z,43.88
2022-09-27T01:15:29.236Z,43.83
2022-09-27T01:16:00.759Z,44.16
2022-09-27T01:16:32.302Z,44.02
2022-09-27T01:17:03.707Z,44.38
2022-09-27T01:17:35.096Z,43.95
2022-09-27T01:18:06.500Z,44.47
2022-09-27T01:18:37.901Z,43.93
2022-09-27T01:19:09.440Z,44.40
2022-09-27T01:19:40.873Z,44.09
2022-09-27T01:20:12.255Z,43.96
2022-09-27T01:20:43.644Z,44.09
2022-09-27T01:21:15.069Z,44.06
2022-09-27T01:21:46.571Z,44.23
2022-09-27T01:22:17.961Z,44.20
2022-09-27T01:22:49.382Z,44.68
2022-09-27T01:23:20.784Z,44.14
2022-09-27T01:23:52.168Z,44.26
2022-09-27T01:24:23.558Z,44.64
2022-09-27T01:24:54.954Z,44.45
2022-09-27T01:25:26.344Z,44.19
2022-09-27T01:25:57.757Z,44.46
2022-09-27T01:26:29.147Z,44.10
2022-09-27T01:27:00.577Z,44.26
2022-09-27T01:27:31.968Z,44.58
2022-09-27T01:28:03.360Z,44.14
2022-09-27T01:28:34.766Z,44.86
2022-09-27T01:29:06.189Z,44.42
2022-09-27T01:29:37.576Z,44.21
2022-09-27T01:30:09.045Z,44.47
2022-09-27T01:30:40.494Z,44.43
2022-09-27T01:31:11.988Z,44.29
2022-09-27T01:31:43.393Z,44.52
2022-09-27T01:32:14.798Z,44.43
2022-09-27T01:32:46.250Z,44.16
2022-09-27T01:33:17.638Z,44.54
2022-09-27T01:33:49.044Z,44.59
2022-09-27T01:34:20.453Z,44.25
2022-09-27T01:34:51.841Z,43.97
2022-09-27T01:35:23.321Z,44.27
2022-09-27T01:35:54.706Z,44.03
2022-09-27T01:36:26.097Z,44.44
2022-09-27T01:36:57.481Z,44.27
2022-09-27T01:37:28.891Z,44.35
2022-09-27T01:38:00.293Z,44.53
2022-09-27T01:38:31.697Z,44.56
2022-09-27T01:39:03.082Z,44.03
2022-09-27T01:39:34.525Z,43.96
2022-09-27T01:40:05.910Z,44.46
2022-09-27T01:40:37.456Z,44.21
2022-09-27T01:41:08.852Z,44.48
2022-09-27T01:41:40.265Z,44.05
2022-09-27T01:42:13.142Z,43.97
2022-09-27T01:42:44.870Z,44.04
2022-09-27T01:43:16.260Z,44.25
2022-09-27T01:43:47.672Z,44.38
2022-09-27T01:44:19.064Z,44.54
2022-09-27T01:44:50.453Z,44.08
2022-09-27T01:45:21.847Z,44.54
2022-09-27T01:45:53.362Z,44.65
2022-09-27T01:46:24.841Z,44.32
2022-09-27T01:46:56.277Z,44.25
2022-09-27T01:47:27.676Z,43.99
2022-09-27T01:47:59.060Z,44.19
2022-09-27T01:48:30.445Z,44.15
2022-09-27T01:49:01.823Z,44.50
2022-09-27T01:49:33.235Z,44.34
2022-09-27T01:50:04.636Z,44.39
2022-09-27T01:50:36.023Z,44.26
2022-09-27T01:51:07.451Z,44.11
2022-09-27T01:51:38.856Z,44.35
2022-09-27T01:52:10.244Z,44.24
2022-09-27T01:52:41.628Z,44.22
2022-09-27T01:53:13.012Z,44.07
2022-09-27T01:53:44.409Z,44.26
2022-09-27T01:54:15.802Z,44.33
2022-09-27T01:54:47.189Z,44.04
2022-09-27T01:55:18.572Z,44.19
2022-09-27T01:55:50.051Z,44.47
2022-09-27T01:56:21.446Z,43.80
2022-09-27T01:56:52.850Z,44.12
2022-09-27T01:57:24.235Z,44.19
2022-09-27T01:57:55.699Z,44.50
2022-09-27T01:58:27.093Z,44.44
2022-09-27T01:58:58.490Z,44.47
2022-09-27T01:59:29.895Z,44.29
2022-09-27T02:00:01.300Z,44.52
2022-09-27T02:00:32.687Z,44.20
2022-09-27T02:01:04.141Z,43.92
2022-09-27T02:01:35.602Z,44.20
2022-09-27T02:02:07.094Z,44.52
2022-09-27T02:02:38.615Z,44.36
2022-09-27T02:03:10.045Z,44.05
2022-09-27T02:03:41.428Z,44.32
2022-09-27T02:04:12.818Z,44.28
2022-09-27T02:04:44.225Z,44.37
2022-09-27T02:05:15.630Z,44.31
2022-09-27T02:05:47.036Z,44.35
2022-09-27T02:06:18.483Z,44.31
2022-09-27T02:06:49.892Z,44.33
2022-09-27T02:07:21.285Z,44.19
2022-09-27T02:07:52.701Z,44.06
2022-09-27T02:08:24.099Z,44.02
2022-09-27T02:08:55.491Z,44.33
2022-09-27T02:09:26.904Z,44.11
2022-09-27T02:09:58.436Z,43.94
2022-09-27T02:10:29.820Z,44.23
2022-09-27T02:11:01.313Z,44.48
2022-09-27T02:11:32.721Z,44.31
2022-09-27T02:12:04.108Z,44.18
2022-09-27T02:12:35.502Z,44.33
2022-09-27T02:13:06.901Z,44.57
2022-09-27T02:13:38.305Z,44.36
2022-09-27T02:14:09.689Z,44.25
2022-09-27T02:14:41.077Z,44.30
2022-09-27T02:15:12.465Z,44.32
2022-09-27T02:15:43.923Z,44.32
2022-09-27T02:16:15.543Z,44.16
2022-09-27T02:16:47.021Z,44.57
2022-09-27T02:17:18.410Z,44.69
2022-09-27T02:17:49.805Z,44.52
2022-09-27T02:18:21.208Z,44.22
2022-09-27T02:18:52.593Z,44.29
2022-09-27T02:19:23.981Z,44.73
2022-09-27T02:19:55.371Z,44.50
2022-09-27T02:20:26.750Z,44.42
2022-09-27T02:20:58.146Z,44.38
2022-09-27T02:21:29.633Z,44.56
2022-09-27T02:22:01.012Z,44.16
2022-09-27T02:22:32.422Z,44.69
2022-09-27T02:23:03.800Z,44.67
2022-09-27T02:23:35.180Z,44.32
2022-09-27T02:24:06.569Z,44.35
2022-09-27T02:24:37.954Z,44.14
2022-09-27T02:25:09.336Z,44.48
2022-09-27T02:25:40.729Z,44.21
2022-09-27T02:26:12.117Z,44.60
2022-09-27T02:26:43.507Z,44.29
2022-09-27T02:27:14.893Z,43.85
2022-09-27T02:27:46.279Z,44.30
2022-09-27T02:28:17.679Z,44.03
2022-09-27T02:28:49.065Z,44.38
2022-09-27T02:29:20.448Z,44.13
2022-09-27T02:29:51.839Z,44.01
2022-09-27T02:30:23.246Z,44.18
2022-09-27T02:30:54.736Z,44.15
2022-09-27T02:31:26.280Z,44.52
2022-09-27T02:31:57.746Z,44.21
2022-09-27T02:32:29.132Z,44.42
2022-09-27T02:33:00.517Z,44.15
2022-09-27T02:33:31.900Z,44.56
2022-09-27T02:34:03.294Z,44.68
2022-09-27T02:34:34.681Z,44.24
2022-09-27T02:35:06.094Z,44.07
2022-09-27T02:35:37.497Z,44.43
2022-09-27T02:36:08.904Z,44.38
2022-09-27T02:36:40.393Z,44.44
2022-09-27T02:37:11.784Z,44.14
2022-09-27T02:37:43.172Z,43.80
2022-09-27T02:38:14.556Z,44.70
2022-09-27T02:38:45.944Z,44.52
2022-09-27T02:39:17.513Z,44.49
2022-09-27T02:39:49.085Z,44.10
2022-09-27T02:40:20.572Z,44.50
2022-09-27T02:40:52.066Z,44.01
2022-09-27T02:41:23.532Z,43.93
2022-09-27T02:41:55.050Z,44.53
2022-09-27T02:42:26.435Z,44.71
2022-09-27T02:42:57.816Z,44.50
2022-09-27T02:43:29.200Z,44.93
2022-09-27T02:44:00.608Z,44.18
2022-09-27T02:44:32.001Z,44.17
2022-09-27T02:45:03.384Z,43.93
2022-09-27T02:45:34.773Z,44.29
2022-09-27T02:46:06.240Z,44.41
2022-09-27T02:46:37.758Z,44.39
2022-09-27T02:47:09.213Z,44.46
2022-09-27T02:47:40.598Z,44.05
2022-09-27T02:48:11.999Z,44.59
2022-09-27T02:48:43.393Z,44.31
2022-09-27T02:49:14.872Z,44.35
2022-09-27T02:49:46.312Z,44.70
2022-09-27T02:50:17.713Z,44.17
2022-09-27T02:50:49.097Z,44.47
2022-09-27T02:51:20.485Z,44.08
2022-09-27T02:51:51.867Z,44.42
2022-09-27T02:52:23.606Z,44.21
2022-09-27T02:52:54.998Z,44.47
2022-09-27T02:53:26.388Z,44.38
2022-09-27T02:53:57.776Z,44.27
2022-09-27T02:54:29.160Z,44.28
2022-09-27T02:55:00.549Z,44.64
2022-09-27T02:55:31.957Z,44.52
2022-09-27T02:56:03.337Z,44.64
2022-09-27T02:56:34.729Z,44.18
2022-09-27T02:57:06.110Z,44.25
2022-09-27T02:57:37.537Z,44.49
2022-09-27T02:58:08.918Z,44.70
2022-09-27T02:58:40.356Z,44.12
2022-09-27T02:59:11.763Z,44.43
2022-09-27T02:59:43.172Z,44.50
2022-09-27T03:00:14.576Z,44.09
2022-09-27T03:00:45.965Z,44.26
2022-09-27T03:01:17.364Z,44.32
2022-09-27T03:01:48.840Z,44.45
2022-09-27T03:02:20.352Z,44.71
2022-09-27T03:02:51.923Z,44.40
2022-09-27T03:03:23.405Z,44.48
2022-09-27T03:03:54.795Z,44.22
2022-09-27T03:04:26.190Z,44.42
2022-09-27T03:04:57.571Z,44.18
2022-09-27T03:05:28.956Z,44.35
2022-09-27T03:06:00.353Z,44.24
2022-09-27T03:06:31.733Z,44.77
2022-09-27T03:07:03.117Z,44.31
2022-09-27T03:07:34.495Z,44.26
2022-09-27T03:08:05.932Z,44.53
2022-09-27T03:08:37.382Z,44.33
2022-09-27T03:09:08.800Z,44.81
2022-09-27T03:09:40.225Z,44.34
2022-09-27T03:10:11.634Z,44.36
2022-09-27T03:10:43.016Z,44.44
2022-09-27T03:11:14.415Z,44.48
2022-09-27T03:11:45.807Z,44.31
2022-09-27T03:12:17.198Z,44.38
2022-09-27T03:12:48.604Z,44.39
2022-09-27T03:13:20.124Z,44.43
2022-09-27T03:14:07.836Z,43.91
2022-09-27T03:14:40.035Z,44.33
2022-09-27T03:15:11.441Z,44.43
2022-09-27T03:15:42.832Z,44.62
2022-09-27T03:16:14.212Z,44.70
2022-09-27T03:16:45.633Z,44.32
2022-09-27T03:17:17.069Z,44.18
2022-09-27T03:17:48.457Z,44.21
2022-09-27T03:18:19.948Z,44.43
2022-09-27T03:18:51.338Z,44.60
2022-09-27T03:19:22.741Z,44.54
2022-09-27T03:19:54.163Z,44.26
2022-09-27T03:20:25.543Z,44.27
2022-09-27T03:20:56.932Z,44.65
2022-09-27T03:21:28.395Z,44.17
2022-09-27T03:21:59.800Z,44.51
2022-09-27T03:22:31.184Z,44.55
2022-09-27T03:23:02.576Z,44.64
2022-09-27T03:23:34.029Z,44.69
2022-09-27T03:24:05.407Z,44.08
2022-09-27T03:24:36.800Z,44.18
2022-09-27T03:25:08.185Z,44.11
2022-09-27T03:25:39.660Z,44.35
2022-09-27T03:26:13.130Z,44.96
2022-09-27T03:26:44.778Z,44.65
2022-09-27T03:27:16.172Z,44.65
2022-09-27T03:27:47.556Z,44.36
2022-09-27T03:28:18.981Z,44.39
2022-09-27T03:28:50.378Z,44.32
2022-09-27T03:29:21.762Z,44.34
2022-09-27T03:29:53.141Z,44.47
2022-09-27T03:30:24.534Z,44.34
2022-09-27T03:30:55.960Z,44.81
2022-09-27T03:31:27.558Z,44.56
2022-09-27T03:31:58.977Z,44.90
2022-09-27T03:32:30.397Z,44.17
2022-09-27T03:33:01.817Z,44.42
2022-09-27T03:33:33.285Z,44.60
2022-09-27T03:34:04.671Z,44.69
2022-09-27T03:34:36.057Z,44.34
2022-09-27T03:35:07.445Z,44.35
2022-09-27T03:35:38.832Z,44.64
2022-09-27T03:36:10.245Z,44.32
2022-09-27T03:36:41.631Z,44.11
2022-09-27T03:37:13.018Z,44.42
2022-09-27T03:37:44.396Z,44.57
2022-09-27T03:38:15.785Z,44.48
2022-09-27T03:38:47.203Z,44.70
2022-09-27T03:39:18.608Z,44.21
2022-09-27T03:39:49.987Z,44.50
2022-09-27T03:40:21.383Z,44.62
2022-09-27T03:40:52.953Z,44.34
2022-09-27T03:41:24.404Z,44.70
2022-09-27T03:41:55.873Z,44.13
2022-09-27T03:42:27.264Z,44.36
2022-09-27T03:42:58.647Z,44.40
2022-09-27T03:43:30.173Z,44.46
2022-09-27T03:44:01.556Z,44.76
2022-09-27T03:44:32.957Z,44.52
2022-09-27T03:45:04.356Z,44.68
2022-09-27T03:45:35.764Z,44.47
2022-09-27T03:46:07.184Z,44.44
2022-09-27T03:46:38.740Z,44.40
2022-09-27T03:47:10.168Z,44.38
2022-09-27T03:47:41.553Z,44.17
2022-09-27T03:48:12.939Z,44.20
2022-09-27T03:48:44.400Z,44.36
2022-09-27T03:49:15.860Z,44.15
2022-09-27T03:49:47.280Z,44.55
2022-09-27T03:50:18.688Z,44.19
2022-09-27T03:50:50.072Z,44.67
2022-09-27T03:51:21.453Z,44.17
2022-09-27T03:51:52.850Z,44.39
2022-09-27T03:52:24.240Z,44.45
2022-09-27T03:52:55.624Z,44.20
2022-09-27T03:53:27.011Z,44.18
2022-09-27T03:53:58.412Z,44.55
2022-09-27T03:54:29.797Z,44.47
2022-09-27T03:55:02.401Z,44.46
2022-09-27T03:55:33.978Z,44.45
2022-09-27T03:56:05.364Z,44.64
2022-09-27T03:56:36.743Z,44.68
2022-09-27T03:57:08.127Z,44.63
2022-09-27T03:57:39.659Z,44.40
2022-09-27T03:58:11.051Z,44.46
2022-09-27T03:58:42.433Z,44.54
2022-09-27T03:59:13.880Z,44.32
2022-09-27T03:59:45.340Z,44.58
2022-09-27T04:00:16.781Z,44.48
2022-09-27T04:00:48.189Z,44.65
2022-09-27T04:01:19.613Z,44.37
2022-09-27T04:01:51.088Z,44.47
2022-09-27T04:02:22.606Z,43.93
2022-09-27T04:02:54.082Z,44.22
2022-09-27T04:03:25.502Z,44.44
2022-09-27T04:03:56.932Z,44.48
2022-09-27T04:04:28.337Z,44.60
2022-09-27T04:04:59.726Z,44.41
2022-09-27T04:05:31.115Z,44.74
2022-09-27T04:06:02.495Z,44.65
2022-09-27T04:06:33.971Z,44.64
2022-09-27T04:07:05.356Z,44.36
2022-09-27T04:07:36.840Z,44.46
2022-09-27T04:08:08.238Z,44.52
2022-09-27T04:08:39.627Z,44.57
2022-09-27T04:09:11.075Z,44.64
2022-09-27T04:09:44.750Z,44.37
2022-09-27T04:10:16.339Z,44.58
2022-09-27T04:10:47.724Z,44.67
2022-09-27T04:11:19.126Z,44.70
2022-09-27T04:11:50.529Z,44.29
2022-09-27T04:12:21.936Z,44.39
2022-09-27T04:12:53.371Z,44.02
2022-09-27T04:13:24.756Z,44.70
2022-09-27T04:13:56.137Z,43.98
2022-09-27T04:14:27.516Z,44.80
2022-09-27T04:14:58.910Z,44.71
2022-09-27T04:15:30.301Z,44.80
2022-09-27T04:16:01.793Z,44.35
2022-09-27T04:16:33.215Z,44.32
2022-09-27T04:17:04.688Z,44.50
2022-09-27T04:17:36.127Z,44.70
2022-09-27T04:18:07.550Z,44.37
2022-09-27T04:18:38.932Z,44.51
2022-09-27T04:19:10.326Z,44.45
2022-09-27T04:19:41.780Z,44.39
2022-09-27T04:20:13.169Z,44.57
2022-09-27T04:20:44.557Z,44.25
2022-09-27T04:21:15.972Z,44.75
2022-09-27T04:21:47.352Z,44.57
2022-09-27T04:22:18.736Z,44.73
2022-09-27T04:22:50.245Z,44.59
2022-09-27T04:23:22.898Z,44.41
2022-09-27T04:23:55.786Z,44.88
2022-09-27T04:24:27.188Z,44.34
2022-09-27T04:24:58.574Z,44.10
2022-09-27T04:25:29.956Z,44.47
2022-09-27T04:26:01.365Z,44.60
2022-09-27T04:26:32.787Z,44.57
2022-09-27T04:27:04.200Z,44.58
2022-09-27T04:27:35.596Z,44.77
2022-09-27T04:28:07.193Z,44.21
2022-09-27T04:28:38.588Z,44.75
2022-09-27T04:29:09.989Z,44.59
2022-09-27T04:29:41.421Z,44.84
2022-09-27T04:30:12.836Z,44.39
2022-09-27T04:30:44.263Z,44.71
2022-09-27T04:31:15.770Z,44.67
2022-09-27T04:31:47.208Z,44.46
2022-09-27T04:32:18.597Z,44.65
2022-09-27T04:32:49.990Z,44.27
2022-09-27T04:33:21.399Z,44.58
2022-09-27T04:33:52.788Z,44.63
2022-09-27T04:34:24.164Z,44.47
2022-09-27T04:34:55.569Z,44.66
2022-09-27T04:35:26.957Z,44.62
2022-09-27T04:35:58.342Z,44.96
2022-09-27T04:36:29.727Z,44.70
2022-09-27T04:37:01.121Z,44.91
2022-09-27T04:37:32.509Z,44.73
2022-09-27T04:38:03.897Z,44.70
2022-09-27T04:38:35.519Z,44.21
2022-09-27T04:39:06.917Z,44.80
2022-09-27T04:39:38.300Z,45.02
2022-09-27T04:40:09.730Z,44.57
2022-09-27T04:40:41.159Z,44.57
2022-09-27T04:41:12.588Z,44.59
2022-09-27T04:41:43.972Z,44.73
2022-09-27T04:42:15.386Z,44.37
2022-09-27T04:42:46.815Z,44.33
2022-09-27T04:43:18.197Z,44.87
2022-09-27T04:43:49.673Z,44.75
2022-09-27T04:44:21.080Z,44.53
2022-09-27T04:44:52.559Z,44.23
2022-09-27T04:45:23.987Z,44.71
2022-09-27T04:45:55.487Z,44.23
2022-09-27T04:46:27.106Z,44.65
2022-09-27T04:46:58.596Z,44.77
2022-09-27T04:47:30.076Z,44.48
2022-09-27T04:48:01.467Z,44.73
2022-09-27T04:48:32.858Z,43.98
2022-09-27T04:49:04.356Z,44.46
2022-09-27T04:49:35.753Z,44.35
2022-09-27T04:50:07.148Z,44.43
2022-09-27T04:50:38.545Z,44.33
2022-09-27T04:51:09.932Z,44.45
2022-09-27T04:51:41.340Z,44.39
2022-09-27T04:52:12.744Z,44.68
2022-09-27T04:52:44.161Z,44.32
2022-09-27T04:53:15.539Z,44.56
2022-09-27T04:53:46.922Z,44.23
2022-09-27T04:54:18.320Z,44.35
2022-09-27T04:54:49.700Z,44.61
2022-09-27T04:55:21.103Z,44.75
2022-09-27T04:55:52.508Z,44.46
2022-09-27T04:56:23.914Z,44.40
2022-09-27T04:56:55.305Z,44.25
2022-09-27T04:57:26.687Z,44.76
2022-09-27T04:57:58.073Z,44.17
2022-09-27T04:58:29.457Z,44.37
2022-09-27T04:59:00.953Z,44.60
2022-09-27T04:59:32.373Z,44.29
2022-09-27T05:00:03.761Z,44.35
2022-09-27T05:00:35.164Z,44.31
2022-09-27T05:01:06.621Z,44.83
2022-09-27T05:01:38.071Z,44.30
2022-09-27T05:02:09.601Z,44.48
2022-09-27T05:02:41.211Z,44.73
2022-09-27T05:03:12.767Z,44.45
2022-09-27T05:03:44.164Z,44.46
2022-09-27T05:04:15.587Z,44.39
2022-09-27T05:04:46.978Z,44.47
2022-09-27T05:05:18.376Z,44.24
2022-09-27T05:05:49.764Z,44.44
2022-09-27T05:06:21.149Z,44.55
2022-09-27T05:06:56.905Z,44.42
2022-09-27T05:07:28.651Z,44.87
2022-09-27T05:08:00.059Z,44.44
2022-09-27T05:08:31.448Z,44.32
2022-09-27T05:09:02.838Z,44.25
2022-09-27T05:09:34.360Z,44.56
2022-09-27T05:10:05.744Z,44.47
2022-09-27T05:10:37.266Z,44.49
2022-09-27T05:11:08.652Z,44.23
2022-09-27T05:11:40.031Z,44.53
2022-09-27T05:12:11.412Z,44.31
2022-09-27T05:12:42.798Z,44.32
2022-09-27T05:13:14.179Z,44.63
2022-09-27T05:13:45.588Z,44.13
2022-09-27T05:14:17.025Z,44.49
2022-09-27T05:14:48.616Z,44.10
2022-09-27T05:15:20.020Z,44.28
2022-09-27T05:15:51.405Z,44.12
2022-09-27T05:16:22.830Z,44.57
2022-09-27T05:16:54.314Z,44.30
2022-09-27T05:17:25.730Z,44.56
2022-09-27T05:17:57.122Z,44.51
2022-09-27T05:18:28.510Z,44.17
2022-09-27T05:18:59.898Z,44.44
2022-09-27T05:19:31.448Z,44.63
2022-09-27T05:20:02.896Z,44.06
2022-09-27T05:20:34.301Z,44.35
2022-09-27T05:21:05.692Z,44.47
2022-09-27T05:21:37.095Z,44.63
2022-09-27T05:22:08.735Z,44.48
2022-09-27T05:22:40.178Z,44.33
2022-09-27T05:23:11.584Z,44.04
2022-09-27T05:23:45.931Z,44.22
2022-09-27T05:24:19.279Z,44.42
2022-09-27T05:24:50.728Z,44.02
2022-09-27T05:25:22.135Z,44.13
2022-09-27T05:25:53.563Z,44.23
2022-09-27T05:26:24.971Z,44.26
2022-09-27T05:26:56.358Z,44.00
2022-09-27T05:27:27.740Z,44.60
2022-09-27T05:27:59.143Z,44.26
2022-09-27T05:28:30.529Z,44.44
2022-09-27T05:29:01.920Z,44.38
2022-09-27T05:29:33.541Z,44.04
2022-09-27T05:30:04.988Z,44.29
2022-09-27T05:30:36.456Z,44.26
2022-09-27T05:31:07.949Z,44.55
2022-09-27T05:31:39.379Z,44.39
2022-09-27T05:32:10.764Z,44.06
2022-09-27T05:32:42.181Z,44.28
2022-09-27T05:33:13.584Z,44.02
2022-09-27T05:33:44.991Z,44.58
2022-09-27T05:34:16.392Z,44.39
2022-09-27T05:34:47.843Z,44.58
2022-09-27T05:35:19.259Z,44.34
2022-09-27T05:35:50.665Z,44.61
2022-09-27T05:36:22.069Z,44.37
2022-09-27T05:36:53.468Z,44.62
2022-09-27T05:37:24.861Z,44.49
2022-09-27T05:37:56.356Z,44.85
2022-09-27T05:38:27.740Z,44.61
2022-09-27T05:38:59.145Z,44.01
2022-09-27T05:39:30.536Z,44.19
2022-09-27T05:40:16.843Z,44.58
2022-09-27T05:40:53.535Z,44.11
2022-09-27T05:41:25.061Z,44.27
2022-09-27T05:41:56.486Z,44.69
2022-09-27T05:42:27.897Z,44.74
2022-09-27T05:42:59.383Z,44.55
2022-09-27T05:43:30.784Z,44.60
2022-09-27T05:44:02.165Z,44.78
2022-09-27T05:44:33.599Z,44.93
2022-09-27T05:45:05.008Z,44.63
2022-09-27T05:45:36.397Z,44.51
2022-09-27T05:46:07.809Z,44.39
2022-09-27T05:46:39.238Z,44.54
2022-09-27T05:47:10.620Z,44.47
2022-09-27T05:47:42.001Z,44.41
2022-09-27T05:48:13.432Z,44.44
2022-09-27T05:48:44.813Z,44.87
2022-09-27T05:49:16.217Z,45.05
2022-09-27T05:49:47.608Z,44.61
2022-09-27T05:50:19.016Z,44.99
2022-09-27T05:50:50.414Z,44.75
2022-09-27T05:51:21.850Z,44.79
2022-09-27T05:51:53.271Z,44.53
2022-09-27T05:52:24.727Z,44.87
2022-09-27T05:52:56.121Z,44.95
2022-09-27T05:53:27.585Z,44.65
2022-09-27T05:53:58.988Z,44.73
2022-09-27T05:54:30.374Z,44.69
2022-09-27T05:55:01.755Z,44.65
2022-09-27T05:55:33.144Z,45.30
2022-09-27T05:56:04.529Z,44.55
2022-09-27T05:56:35.908Z,44.76
2022-09-27T05:57:07.293Z,44.67
2022-09-27T05:57:38.702Z,44.55
2022-09-27T05:58:10.145Z,44.88
2022-09-27T05:58:41.619Z,44.40
2022-09-27T05:59:13.018Z,44.57
2022-09-27T05:59:44.417Z,44.82
2022-09-27T06:00:15.799Z,45.19
2022-09-27T06:00:47.185Z,45.13
2022-09-27T06:01:18.675Z,44.40
2022-09-27T06:01:50.213Z,44.85
2022-09-27T06:02:21.720Z,44.46
2022-09-27T06:02:53.199Z,45.22
2022-09-27T06:03:24.637Z,44.77
2022-09-27T06:03:56.047Z,44.78
2022-09-27T06:04:27.430Z,45.05
2022-09-27T06:04:59.059Z,44.58
2022-09-27T06:05:30.510Z,44.79
2022-09-27T06:06:01.897Z,44.88
2022-09-27T06:06:33.290Z,45.06
2022-09-27T06:07:04.672Z,45.02
2022-09-27T06:07:36.085Z,45.06
2022-09-27T06:08:07.473Z,44.95
2022-09-27T06:08:38.979Z,44.82
2022-09-27T06:09:10.419Z,44.92
2022-09-27T06:09:41.916Z,45.12
2022-09-27T06:10:13.309Z,44.72
2022-09-27T06:10:44.705Z,44.84
2022-09-27T06:11:16.083Z,44.95
2022-09-27T06:11:47.458Z,44.74
2022-09-27T06:12:24.697Z,45.00
2022-09-27T06:12:56.105Z,44.71
2022-09-27T06:13:27.493Z,44.91
2022-09-27T06:13:59.160Z,44.70
2022-09-27T06:14:30.633Z,45.06
2022-09-27T06:15:02.024Z,45.00
2022-09-27T06:15:36.500Z,45.21
2022-09-27T06:16:10.959Z,45.18
2022-09-27T06:16:42.685Z,44.57
2022-09-27T06:17:14.444Z,45.19
2022-09-27T06:17:46.304Z,44.75
2022-09-27T06:18:17.692Z,44.98
2022-09-27T06:18:49.081Z,44.86
2022-09-27T06:19:20.576Z,45.00
2022-09-27T06:19:51.967Z,45.20
2022-09-27T06:20:23.380Z,44.70
2022-09-27T06:20:54.791Z,44.63
2022-09-27T06:21:26.203Z,45.24
2022-09-27T06:21:57.636Z,44.92
2022-09-27T06:22:29.021Z,44.91
2022-09-27T06:23:00.435Z,45.09
2022-09-27T06:23:33.119Z,44.96
2022-09-27T06:24:04.512Z,45.09
2022-09-27T06:24:36.252Z,44.81
2022-09-27T06:25:07.760Z,44.80
2022-09-27T06:25:39.220Z,45.07
2022-09-27T06:26:11.009Z,44.96
2022-09-27T06:26:44.158Z,45.20
2022-09-27T06:27:15.565Z,45.21
2022-09-27T06:27:48.104Z,45.04
2022-09-27T06:28:19.748Z,45.12
2022-09-27T06:28:51.234Z,44.88
2022-09-27T06:29:22.682Z,45.52
2022-09-27T06:29:54.678Z,45.25
2022-09-27T06:30:26.141Z,45.72
2022-09-27T06:30:57.576Z,45.33
2022-09-27T06:31:29.204Z,45.39
2022-09-27T06:32:00.723Z,45.36
2022-09-27T06:32:32.175Z,45.74
2022-09-27T06:33:03.633Z,45.35
2022-09-27T06:33:35.260Z,45.79
2022-09-27T06:34:06.857Z,45.86
2022-09-27T06:34:38.602Z,45.76
2022-09-27T06:35:10.137Z,45.68
2022-09-27T06:35:41.616Z,45.72
2022-09-27T06:36:13.105Z,45.70
2022-09-27T06:36:46.158Z,46.00
2022-09-27T06:37:19.773Z,45.65
2022-09-27T06:37:51.159Z,45.68
2022-09-27T06:38:22.616Z,45.47
2022-09-27T06:38:54.076Z,45.66
2022-09-27T06:39:25.576Z,45.92
2022-09-27T06:39:57.020Z,45.69
2022-09-27T06:40:28.776Z,45.47
2022-09-27T06:41:00.467Z,45.50
2022-09-27T06:41:31.897Z,46.10
2022-09-27T06:42:03.401Z,45.59
2022-09-27T06:42:34.857Z,45.59
2022-09-27T06:43:06.383Z,45.35
2022-09-27T06:43:38.125Z,45.93
2022-09-27T06:44:09.730Z,46.21
2022-09-27T06:44:41.304Z,45.63
2022-09-27T06:45:12.798Z,45.67
2022-09-27T06:45:44.522Z,45.67